Terminal Aerodrome Forecast
Issued by NWS

Current Version | Previous Version | Text Only | Print | Product List | Glossary On
Versions: 1 2 3 4 5 6 7 8 9 10 11 12 13 14 15 16 17 18 19 20
000
FTUS41 KPBZ 202300
TAFDUJ
TAF
KDUJ 202320Z 2100/2124 20008KT P6SM -SHRA OVC060
      TEMPO 2101/2103 4SM -SHRA BR
     FM210400 22005KT 5SM BR VCSH OVC015
      TEMPO 2105/2107 OVC009
     FM210700 24006KT 4SM BR VCSH OVC006
     FM211400 27005KT 6SM BR OVC010
     FM211700 29006KT P6SM OVC015=

USA.gov is the U.S. government's official web portal to all federal, state and local government web resources and services.